createdAt,value
2023-12-15T00:01:47.931Z,25.40
2023-12-15T00:04:14.581Z,21.80
2023-12-15T00:06:41.219Z,18.75
2023-12-15T00:09:07.843Z,22.88
2023-12-15T00:11:34.434Z,23.80
2023-12-15T00:14:01.074Z,21.63
2023-12-15T00:16:27.679Z,25.08
2023-12-15T00:18:54.298Z,25.70
2023-12-15T00:21:21.832Z,24.67
2023-12-15T00:23:48.381Z,21.60
2023-12-15T00:26:15.083Z,26.83
2023-12-15T00:28:41.699Z,24.63
2023-12-15T00:31:08.294Z,26.77
2023-12-15T00:33:34.960Z,31.02
2023-12-15T00:36:01.590Z,29.58
2023-12-15T00:38:28.276Z,25.20
2023-12-15T00:40:54.973Z,29.10
2023-12-15T00:43:21.561Z,23.65
2023-12-15T00:45:48.114Z,29.13
2023-12-15T00:48:14.700Z,30.60
2023-12-15T00:50:41.322Z,27.67
2023-12-15T00:53:07.850Z,27.27
2023-12-15T00:55:34.412Z,25.13
2023-12-15T00:58:01.012Z,30.95
2023-12-15T01:00:27.531Z,25.90
2023-12-15T01:02:54.570Z,28.50
2023-12-15T01:05:22.435Z,27.23
2023-12-15T01:07:49.874Z,28.50
2023-12-15T01:10:16.643Z,28.20
2023-12-15T01:12:43.165Z,24.92
2023-12-15T01:15:10.223Z,30.08
2023-12-15T01:17:37.269Z,32.13
2023-12-15T01:20:04.478Z,30.67
2023-12-15T01:22:31.127Z,29.25
2023-12-15T01:24:57.879Z,33.15
2023-12-15T01:27:24.456Z,34.33
2023-12-15T01:29:50.996Z,28.25
2023-12-15T01:32:17.670Z,29.33
2023-12-15T01:34:44.256Z,31.23
2023-12-15T01:37:10.827Z,32.53
2023-12-15T01:39:37.419Z,28.10
2023-12-15T01:42:04.442Z,33.58
2023-12-15T01:44:31.110Z,32.20
2023-12-15T01:46:57.757Z,30.73
2023-12-15T01:49:24.620Z,31.75
2023-12-15T01:51:51.576Z,28.55
2023-12-15T01:54:18.108Z,27.90
2023-12-15T01:56:44.747Z,38.10
2023-12-15T01:59:12.439Z,36.53
2023-12-15T02:01:39.270Z,30.88
2023-12-15T02:04:06.171Z,27.90
2023-12-15T02:06:32.748Z,30.20
2023-12-15T02:08:59.354Z,30.02
2023-12-15T02:11:26.009Z,31.58
2023-12-15T02:13:52.639Z,31.02
2023-12-15T02:16:19.229Z,29.73
2023-12-15T02:18:45.965Z,33.92
2023-12-15T02:21:12.655Z,29.20
2023-12-15T02:23:39.203Z,32.13
2023-12-15T02:26:05.896Z,31.63
2023-12-15T02:28:32.555Z,34.22
2023-12-15T02:30:59.161Z,34.50
2023-12-15T02:33:26.038Z,27.67
2023-12-15T02:35:52.998Z,32.13
2023-12-15T02:38:19.856Z,27.88
2023-12-15T02:40:46.593Z,28.83
2023-12-15T02:43:13.341Z,31.42
2023-12-15T02:45:39.975Z,32.35
2023-12-15T02:48:06.747Z,29.10
2023-12-15T02:50:33.684Z,26.73
2023-12-15T02:53:00.420Z,23.00
2023-12-15T02:55:26.984Z,31.83
2023-12-15T02:57:53.594Z,31.08
2023-12-15T03:00:20.434Z,26.13
2023-12-15T03:02:47.006Z,28.98
2023-12-15T03:05:13.670Z,30.85
2023-12-15T03:07:40.349Z,29.75
2023-12-15T03:10:07.340Z,30.02
2023-12-15T03:12:33.926Z,32.47
2023-12-15T03:15:00.740Z,27.40
2023-12-15T03:17:27.441Z,23.90
2023-12-15T03:19:54.148Z,29.80
2023-12-15T03:22:20.691Z,24.98
2023-12-15T03:24:47.540Z,25.20
2023-12-15T03:27:14.137Z,26.27
2023-12-15T03:29:40.694Z,28.23
2023-12-15T03:32:07.514Z,25.83
2023-12-15T03:34:34.076Z,26.98
2023-12-15T03:37:00.700Z,25.23
2023-12-15T03:39:27.327Z,23.13
2023-12-15T03:41:53.848Z,19.10
2023-12-15T03:44:20.578Z,22.88
2023-12-15T03:46:47.155Z,19.55
2023-12-15T03:49:13.873Z,22.10
2023-12-15T03:51:40.448Z,19.92
2023-12-15T03:54:06.991Z,21.48
2023-12-15T03:56:33.672Z,23.65
2023-12-15T03:59:01.885Z,23.88
2023-12-15T04:01:28.557Z,18.63
2023-12-15T04:03:55.115Z,16.45
2023-12-15T04:06:21.661Z,18.05
2023-12-15T04:08:48.362Z,14.23
2023-12-15T04:11:17.735Z,21.70
2023-12-15T04:13:44.459Z,15.55
2023-12-15T04:16:11.031Z,17.60
2023-12-15T04:18:37.648Z,15.45
2023-12-15T04:21:05.255Z,14.27
2023-12-15T04:23:32.589Z,20.52
2023-12-15T04:25:59.507Z,14.15
2023-12-15T04:28:26.524Z,12.32
2023-12-15T04:31:16.115Z,19.10
2023-12-15T04:33:43.008Z,17.02
2023-12-15T04:36:10.182Z,10.60
2023-12-15T04:38:36.817Z,14.93
2023-12-15T04:41:03.441Z,15.07
2023-12-15T04:43:30.144Z,10.27
2023-12-15T04:45:59.780Z,12.73
2023-12-15T04:48:26.444Z,15.10
2023-12-15T04:50:53.429Z,11.18
2023-12-15T04:53:20.096Z,18.88
2023-12-15T04:55:46.718Z,10.75
2023-12-15T04:58:13.245Z,13.30
2023-12-15T05:00:39.838Z,9.13
2023-12-15T05:03:06.446Z,14.95
2023-12-15T05:05:33.188Z,18.45
2023-12-15T05:07:59.882Z,12.45
2023-12-15T05:10:26.453Z,22.65
2023-12-15T05:12:53.014Z,13.45
2023-12-15T05:15:19.727Z,15.13
2023-12-15T05:17:46.859Z,25.08
2023-12-15T05:20:13.549Z,13.02
2023-12-15T05:22:40.264Z,14.63
2023-12-15T05:25:07.283Z,15.88
2023-12-15T05:27:33.974Z,17.63
2023-12-15T05:30:00.583Z,17.88
2023-12-15T05:32:27.209Z,14.05
2023-12-15T05:34:53.832Z,14.32
2023-12-15T05:37:21.293Z,10.88
2023-12-15T05:39:47.930Z,11.85
2023-12-15T05:42:14.569Z,20.45
2023-12-15T05:44:42.224Z,21.27
2023-12-15T05:47:09.463Z,17.63
2023-12-15T05:49:42.437Z,14.85
2023-12-15T05:52:10.959Z,14.05
2023-12-15T05:54:41.129Z,13.55
2023-12-15T05:57:10.412Z,15.45
2023-12-15T05:59:38.700Z,14.07
2023-12-15T06:02:05.547Z,19.27
2023-12-15T06:04:32.114Z,16.80
2023-12-15T06:06:58.649Z,15.07
2023-12-15T06:09:25.318Z,16.77
2023-12-15T06:11:51.939Z,18.38
2023-12-15T06:14:19.378Z,11.95
2023-12-15T06:16:45.950Z,13.88
2023-12-15T06:19:12.560Z,19.15
2023-12-15T06:21:39.194Z,13.35
2023-12-15T06:24:06.292Z,15.77
2023-12-15T06:26:33.399Z,16.80
2023-12-15T06:28:59.963Z,11.05
2023-12-15T06:31:30.471Z,15.55
2023-12-15T06:33:57.116Z,15.75
2023-12-15T06:36:25.539Z,15.50
2023-12-15T06:38:53.264Z,13.32
2023-12-15T06:41:19.995Z,13.50
2023-12-15T06:43:46.719Z,16.42
2023-12-15T06:46:14.022Z,14.57
2023-12-15T06:48:40.757Z,9.18
2023-12-15T06:51:07.586Z,10.00
2023-12-15T06:53:34.656Z,11.02
2023-12-15T06:56:01.574Z,8.13
2023-12-15T06:58:28.174Z,17.27
2023-12-15T07:00:54.867Z,10.07
2023-12-15T07:03:21.701Z,20.95
2023-12-15T07:05:48.726Z,9.48
2023-12-15T07:08:15.612Z,12.88
2023-12-15T07:10:42.776Z,9.10
2023-12-15T07:13:09.562Z,13.35
2023-12-15T07:15:36.917Z,13.00
2023-12-15T07:18:03.692Z,10.57
2023-12-15T07:20:30.423Z,10.40
2023-12-15T07:22:57.046Z,11.02
2023-12-15T07:25:25.546Z,20.15
2023-12-15T07:27:52.532Z,10.50
2023-12-15T07:30:19.265Z,7.82
2023-12-15T07:32:45.933Z,13.10
2023-12-15T07:35:20.909Z,6.90
2023-12-15T07:37:57.049Z,10.75
2023-12-15T07:40:24.111Z,8.68
2023-12-15T07:42:50.655Z,13.45
2023-12-15T07:45:17.231Z,9.88
2023-12-15T07:47:43.927Z,10.98
2023-12-15T07:50:11.123Z,8.95
2023-12-15T07:52:37.690Z,18.90
2023-12-15T07:55:04.838Z,9.15
2023-12-15T07:57:33.651Z,9.23
2023-12-15T08:00:00.241Z,10.52
2023-12-15T08:02:26.913Z,6.47
2023-12-15T08:04:53.464Z,10.93
2023-12-15T08:07:20.050Z,7.93
2023-12-15T08:09:46.603Z,5.50
2023-12-15T08:12:13.215Z,12.35
2023-12-15T08:14:40.323Z,6.18
2023-12-15T08:17:07.076Z,14.15
2023-12-15T08:19:33.887Z,11.77
2023-12-15T08:22:03.920Z,11.50
2023-12-15T08:24:30.476Z,9.80
2023-12-15T08:26:58.794Z,23.00
2023-12-15T08:29:25.877Z,10.85
2023-12-15T08:31:52.554Z,11.63
2023-12-15T08:34:19.424Z,10.75
2023-12-15T08:36:46.026Z,5.13
2023-12-15T08:39:15.650Z,8.60
2023-12-15T08:41:44.176Z,9.55
2023-12-15T08:44:19.525Z,10.70
2023-12-15T08:46:51.321Z,12.20
2023-12-15T08:49:18.031Z,7.82
2023-12-15T08:51:45.479Z,8.80
2023-12-15T08:54:14.559Z,7.05
2023-12-15T08:56:42.649Z,9.15
2023-12-15T08:59:09.269Z,6.72
2023-12-15T09:01:36.043Z,5.63
2023-12-15T09:04:02.633Z,8.73
2023-12-15T09:06:32.832Z,10.30
2023-12-15T09:09:03.780Z,5.10
2023-12-15T09:11:30.491Z,9.93
2023-12-15T09:13:57.153Z,5.53
2023-12-15T09:16:23.926Z,6.97
2023-12-15T09:18:50.616Z,10.00
2023-12-15T09:21:17.215Z,6.22
2023-12-15T09:23:43.760Z,14.82
2023-12-15T09:26:10.499Z,5.90
2023-12-15T09:28:37.081Z,6.82
2023-12-15T09:31:03.666Z,11.10
2023-12-15T09:33:30.292Z,11.00
2023-12-15T09:35:57.532Z,12.38
2023-12-15T09:38:24.277Z,6.85
2023-12-15T09:40:50.984Z,10.73
2023-12-15T09:43:17.530Z,8.13
2023-12-15T09:45:45.645Z,10.73
2023-12-15T09:48:14.268Z,8.63
2023-12-15T09:50:50.496Z,10.10
2023-12-15T09:53:18.730Z,10.05
2023-12-15T09:55:45.918Z,12.52
2023-12-15T09:58:13.348Z,7.63
2023-12-15T10:00:40.385Z,8.60
2023-12-15T10:03:07.101Z,5.93
2023-12-15T10:05:34.394Z,6.82
2023-12-15T10:08:01.926Z,6.07
2023-12-15T10:10:28.691Z,10.55
2023-12-15T10:12:58.295Z,4.90
2023-12-15T10:15:28.594Z,6.72
2023-12-15T10:17:57.898Z,7.15
2023-12-15T10:20:24.716Z,7.43
2023-12-15T10:23:06.217Z,7.50
2023-12-15T10:25:36.044Z,7.20
2023-12-15T10:28:05.849Z,9.55
2023-12-15T10:30:32.556Z,7.30
2023-12-15T10:33:00.716Z,10.45
2023-12-15T10:35:30.147Z,12.45
2023-12-15T10:37:57.149Z,5.47
2023-12-15T10:40:24.106Z,6.57
2023-12-15T10:42:52.535Z,5.80
2023-12-15T10:45:21.151Z,6.95
2023-12-15T10:47:51.746Z,6.72
2023-12-15T10:50:19.644Z,9.27
2023-12-15T10:52:46.468Z,8.15
2023-12-15T10:55:15.121Z,5.43
2023-12-15T10:57:42.492Z,6.10
2023-12-15T11:00:11.311Z,5.72
2023-12-15T11:02:40.990Z,6.82
2023-12-15T11:05:10.858Z,7.72
2023-12-15T11:07:39.605Z,4.65
2023-12-15T11:10:07.228Z,4.82
2023-12-15T11:12:38.326Z,4.65
2023-12-15T11:15:07.982Z,7.85
2023-12-15T11:17:38.725Z,5.30
2023-12-15T11:20:27.726Z,10.10
2023-12-15T11:22:57.418Z,4.93
2023-12-15T11:25:47.020Z,5.72
2023-12-15T11:28:17.308Z,6.33
2023-12-15T11:30:55.131Z,4.97
2023-12-15T11:33:22.097Z,8.20
2023-12-15T11:35:59.046Z,9.48
2023-12-15T11:38:25.938Z,10.20
2023-12-15T11:40:54.189Z,7.13
2023-12-15T11:43:21.575Z,8.75
2023-12-15T11:45:49.906Z,13.77
2023-12-15T11:48:17.906Z,8.18
2023-12-15T11:50:45.882Z,5.82
2023-12-15T11:53:16.239Z,7.83
2023-12-15T11:55:45.939Z,7.20
2023-12-15T11:58:16.278Z,8.43
2023-12-15T12:00:43.762Z,10.75
2023-12-15T12:03:14.564Z,5.70
2023-12-15T12:05:43.947Z,7.07
2023-12-15T12:08:11.689Z,5.88
2023-12-15T12:10:40.978Z,9.40
2023-12-15T12:13:08.938Z,7.47
2023-12-15T12:15:49.432Z,5.88
2023-12-15T12:18:16.155Z,7.37
2023-12-15T12:20:43.090Z,9.80
2023-12-15T12:23:10.371Z,6.38
2023-12-15T12:25:36.921Z,9.30
2023-12-15T12:28:05.321Z,4.45
2023-12-15T12:30:31.910Z,10.57
2023-12-15T12:32:58.610Z,7.80
2023-12-15T12:35:25.318Z,7.75
2023-12-15T12:37:51.875Z,6.65
2023-12-15T12:40:18.546Z,7.00
2023-12-15T12:42:45.736Z,9.40
2023-12-15T12:45:12.626Z,9.43
2023-12-15T12:47:42.441Z,8.35
2023-12-15T12:50:11.301Z,9.02
2023-12-15T12:52:38.163Z,8.50
2023-12-15T12:55:07.925Z,8.57
2023-12-15T12:57:34.717Z,9.85
2023-12-15T13:00:01.581Z,9.13
2023-12-15T13:02:28.282Z,6.38
2023-12-15T13:04:55.009Z,6.50
2023-12-15T13:07:21.609Z,9.67
2023-12-15T13:09:48.177Z,6.80
2023-12-15T13:12:19.035Z,7.47
2023-12-15T13:14:49.051Z,7.78
2023-12-15T13:17:17.030Z,10.68
2023-12-15T13:19:43.717Z,7.47
2023-12-15T13:22:10.378Z,8.25
2023-12-15T13:24:46.849Z,5.30
2023-12-15T13:27:22.955Z,8.43
2023-12-15T13:29:50.200Z,6.88
2023-12-15T13:32:18.946Z,7.30
2023-12-15T13:34:46.702Z,8.85
2023-12-15T13:37:14.138Z,7.85
2023-12-15T13:39:42.799Z,8.10
2023-12-15T13:42:09.536Z,8.23
2023-12-15T13:44:37.186Z,6.93
2023-12-15T13:47:04.722Z,8.82
2023-12-15T13:49:33.170Z,8.75
2023-12-15T13:52:00.948Z,9.50
2023-12-15T13:54:28.236Z,9.45
2023-12-15T13:56:57.377Z,10.43
2023-12-15T13:59:24.868Z,6.22
2023-12-15T14:01:51.576Z,8.93
2023-12-15T14:04:18.259Z,8.57
2023-12-15T14:06:49.441Z,8.55
2023-12-15T14:09:16.333Z,5.70
2023-12-15T14:11:43.573Z,7.15
2023-12-15T14:14:10.342Z,9.75
2023-12-15T14:16:44.082Z,6.70
2023-12-15T14:19:18.090Z,6.18
2023-12-15T14:21:45.820Z,6.10
2023-12-15T14:24:12.553Z,9.23
2023-12-15T14:26:40.380Z,8.93
2023-12-15T14:29:07.614Z,9.82
2023-12-15T14:31:34.207Z,7.32
2023-12-15T14:34:00.813Z,8.47
2023-12-15T14:36:28.661Z,6.80
2023-12-15T14:38:55.270Z,10.32
2023-12-15T14:41:22.495Z,4.30
2023-12-15T14:43:49.195Z,12.95
2023-12-15T14:46:15.822Z,6.20
2023-12-15T14:48:43.955Z,9.82
2023-12-15T14:51:10.790Z,4.18
2023-12-15T14:53:37.578Z,6.22
2023-12-15T14:56:05.254Z,6.32
2023-12-15T14:58:31.973Z,7.88
2023-12-15T15:00:58.793Z,7.47
2023-12-15T15:03:25.516Z,8.95
2023-12-15T15:05:52.164Z,7.50
2023-12-15T15:08:18.903Z,4.85
2023-12-15T15:10:45.663Z,6.82
2023-12-15T15:13:12.320Z,9.77
2023-12-15T15:15:38.880Z,5.88
2023-12-15T15:18:05.732Z,7.50
2023-12-15T15:20:32.636Z,9.60
2023-12-15T15:22:59.282Z,8.90
2023-12-15T15:25:25.844Z,13.45
2023-12-15T15:27:52.415Z,8.23
2023-12-15T15:30:19.029Z,5.03
2023-12-15T15:32:45.845Z,5.07
2023-12-15T15:35:13.353Z,5.95
2023-12-15T15:37:40.498Z,6.00
2023-12-15T15:40:07.926Z,10.63
2023-12-15T15:42:34.552Z,6.10
2023-12-15T15:45:01.139Z,6.55
2023-12-15T15:47:30.624Z,7.25
2023-12-15T15:49:58.166Z,10.02
2023-12-15T15:52:26.698Z,7.53
2023-12-15T15:54:53.493Z,8.75
2023-12-15T15:57:20.455Z,9.85
2023-12-15T15:59:47.366Z,10.10
2023-12-15T16:02:14.151Z,11.73
2023-12-15T16:04:41.056Z,10.63
2023-12-15T16:07:07.786Z,9.30
2023-12-15T16:09:34.472Z,10.35
2023-12-15T16:12:01.058Z,9.70
2023-12-15T16:14:27.645Z,11.10
2023-12-15T16:16:54.622Z,25.23
2023-12-15T16:19:21.532Z,8.65
2023-12-15T16:21:48.414Z,12.95
2023-12-15T16:24:15.041Z,6.63
2023-12-15T16:26:44.930Z,11.35
2023-12-15T16:29:11.622Z,8.68
2023-12-15T16:31:38.294Z,10.27
2023-12-15T16:34:05.851Z,10.43
2023-12-15T16:36:32.951Z,7.38
2023-12-15T16:38:59.524Z,6.82
2023-12-15T16:41:33.993Z,8.68
2023-12-15T16:44:00.675Z,6.50
2023-12-15T16:46:27.365Z,6.75
2023-12-15T16:48:54.519Z,4.80
2023-12-15T16:51:22.584Z,8.60
2023-12-15T16:53:50.247Z,5.68
2023-12-15T16:56:16.778Z,10.68
2023-12-15T16:58:43.847Z,8.82
2023-12-15T17:01:11.090Z,9.82
2023-12-15T17:03:42.835Z,9.07
2023-12-15T17:06:13.424Z,7.88
2023-12-15T17:08:42.904Z,8.90
2023-12-15T17:11:10.567Z,11.40
2023-12-15T17:13:37.525Z,5.72
2023-12-15T17:16:05.247Z,8.73
2023-12-15T17:18:35.210Z,9.35
2023-12-15T17:21:01.931Z,6.47
2023-12-15T17:23:28.664Z,9.35
2023-12-15T17:25:55.220Z,16.80
2023-12-15T17:28:21.898Z,10.23
2023-12-15T17:30:49.125Z,7.32
2023-12-15T17:33:17.058Z,9.10
2023-12-15T17:35:43.834Z,10.65
2023-12-15T17:38:10.471Z,9.38
2023-12-15T17:40:37.167Z,14.00
2023-12-15T17:43:06.203Z,7.97
2023-12-15T17:45:38.648Z,7.43
2023-12-15T17:48:05.697Z,12.52
2023-12-15T17:50:32.354Z,6.65
2023-12-15T17:52:58.881Z,12.75
2023-12-15T17:55:25.573Z,9.13
2023-12-15T17:57:52.235Z,14.90
2023-12-15T18:00:19.452Z,14.13
2023-12-15T18:02:46.023Z,10.55
2023-12-15T18:05:13.020Z,10.07
2023-12-15T18:07:39.882Z,11.48
2023-12-15T18:10:07.441Z,6.28
2023-12-15T18:12:34.186Z,9.82
2023-12-15T18:15:00.784Z,8.30
2023-12-15T18:17:27.555Z,7.15
2023-12-15T18:19:54.179Z,11.05
2023-12-15T18:22:20.826Z,10.77
2023-12-15T18:24:47.499Z,6.15
2023-12-15T18:27:14.214Z,9.02
2023-12-15T18:29:41.130Z,7.03
2023-12-15T18:32:07.740Z,9.02
2023-12-15T18:34:34.462Z,5.72
2023-12-15T18:37:02.578Z,6.55
2023-12-15T18:39:29.222Z,7.32
2023-12-15T18:41:55.815Z,11.38
2023-12-15T18:44:22.701Z,5.85
2023-12-15T18:46:59.285Z,5.97
2023-12-15T18:49:25.947Z,7.75
2023-12-15T18:51:53.339Z,12.10
2023-12-15T18:54:19.913Z,11.52
2023-12-15T18:56:46.498Z,4.68
2023-12-15T18:59:13.170Z,8.68
2023-12-15T19:01:39.923Z,9.23
2023-12-15T19:04:06.762Z,10.30
2023-12-15T19:06:33.334Z,9.38
2023-12-15T19:09:00.069Z,12.43
2023-12-15T19:11:35.589Z,7.45
2023-12-15T19:14:03.573Z,14.70
2023-12-15T19:16:31.421Z,8.70
2023-12-15T19:18:58.286Z,6.72
2023-12-15T19:21:24.954Z,9.27
2023-12-15T19:23:53.334Z,9.18
2023-12-15T19:26:20.752Z,10.88
2023-12-15T19:28:47.918Z,9.60
2023-12-15T19:31:14.732Z,9.07
2023-12-15T19:33:42.520Z,13.02
2023-12-15T19:36:09.934Z,17.17
2023-12-15T19:38:36.544Z,9.13
2023-12-15T19:41:03.653Z,7.75
2023-12-15T19:43:30.331Z,11.23
2023-12-15T19:45:57.047Z,8.73
2023-12-15T19:48:23.730Z,9.38
2023-12-15T19:50:51.386Z,9.70
2023-12-15T19:53:17.942Z,9.45
2023-12-15T19:55:45.661Z,10.43
2023-12-15T19:58:12.391Z,8.82
2023-12-15T20:00:39.426Z,5.45
2023-12-15T20:03:06.003Z,6.07
2023-12-15T20:05:32.586Z,18.55
2023-12-15T20:07:59.142Z,8.38
2023-12-15T20:10:25.807Z,8.95
2023-12-15T20:12:52.519Z,8.50
2023-12-15T20:15:19.121Z,6.85
2023-12-15T20:17:45.737Z,9.50
2023-12-15T20:20:13.489Z,8.25
2023-12-15T20:22:40.057Z,9.43
2023-12-15T20:25:07.924Z,9.55
2023-12-15T20:27:42.329Z,9.40
2023-12-15T20:30:11.921Z,12.90
2023-12-15T20:32:38.913Z,16.10
2023-12-15T20:35:09.892Z,9.82
2023-12-15T20:37:36.912Z,10.02
2023-12-15T20:40:05.740Z,11.15
2023-12-15T20:42:32.432Z,12.20
2023-12-15T20:44:59.973Z,9.27
2023-12-15T20:47:28.397Z,6.18
2023-12-15T20:49:55.335Z,14.10
2023-12-15T20:52:22.333Z,8.52
2023-12-15T20:54:49.038Z,8.77
2023-12-15T20:57:15.832Z,9.02
2023-12-15T20:59:42.663Z,6.82
2023-12-15T21:02:09.572Z,8.40
2023-12-15T21:04:39.047Z,10.38
2023-12-15T21:07:06.368Z,11.32
2023-12-15T21:09:33.041Z,16.70
2023-12-15T21:12:00.501Z,10.63
2023-12-15T21:14:27.214Z,16.20
2023-12-15T21:16:56.024Z,9.73
2023-12-15T21:19:22.775Z,14.18
2023-12-15T21:21:49.935Z,8.27
2023-12-15T21:24:21.080Z,11.00
2023-12-15T21:26:47.694Z,11.15
2023-12-15T21:29:14.266Z,8.23
2023-12-15T21:31:40.857Z,8.70
2023-12-15T21:34:08.253Z,12.27
2023-12-15T21:36:34.938Z,13.57
2023-12-15T21:39:01.555Z,11.43
2023-12-15T21:41:28.216Z,11.95
2023-12-15T21:43:56.398Z,7.78
2023-12-15T21:46:23.150Z,10.80
2023-12-15T21:48:49.870Z,11.90
2023-12-15T21:51:21.845Z,12.35
2023-12-15T21:53:48.647Z,10.80
2023-12-15T21:56:15.256Z,10.35
2023-12-15T21:58:41.857Z,13.70
2023-12-15T22:01:14.534Z,11.05
2023-12-15T22:03:41.291Z,9.48
2023-12-15T22:06:08.903Z,14.75
2023-12-15T22:08:35.524Z,8.65
2023-12-15T22:11:02.124Z,10.35
2023-12-15T22:13:28.853Z,12.70
2023-12-15T22:15:55.530Z,9.88
2023-12-15T22:18:22.267Z,9.30
2023-12-15T22:20:48.883Z,9.73
2023-12-15T22:23:15.814Z,20.92
2023-12-15T22:25:43.068Z,15.45
2023-12-15T22:28:09.796Z,15.55
2023-12-15T22:30:36.541Z,10.63
2023-12-15T22:33:03.200Z,11.90
2023-12-15T22:35:29.884Z,10.38
2023-12-15T22:37:56.447Z,14.57
2023-12-15T22:40:23.173Z,10.38
2023-12-15T22:42:49.835Z,14.27
2023-12-15T22:45:17.852Z,7.80
2023-12-15T22:47:44.891Z,12.18
2023-12-15T22:50:11.890Z,13.32
2023-12-15T22:52:38.733Z,7.75
2023-12-15T22:55:05.950Z,14.30
2023-12-15T22:57:32.565Z,14.60
2023-12-15T22:59:59.121Z,10.85
2023-12-15T23:02:25.630Z,12.05
2023-12-15T23:04:52.441Z,15.07
2023-12-15T23:07:19.101Z,17.70
2023-12-15T23:09:45.920Z,9.13
2023-12-15T23:12:12.612Z,7.88
2023-12-15T23:14:41.510Z,14.40
2023-12-15T23:17:09.409Z,11.38
2023-12-15T23:19:36.022Z,11.63
2023-12-15T23:22:04.050Z,12.02
2023-12-15T23:24:30.764Z,12.20
2023-12-15T23:26:57.320Z,10.32
2023-12-15T23:29:23.894Z,11.77
2023-12-15T23:31:50.441Z,12.57
2023-12-15T23:34:17.061Z,17.65
2023-12-15T23:36:43.702Z,9.00
2023-12-15T23:39:10.450Z,11.57
2023-12-15T23:41:37.049Z,15.60
2023-12-15T23:44:03.597Z,10.70
2023-12-15T23:46:31.725Z,12.00
2023-12-15T23:48:58.486Z,13.23
2023-12-15T23:51:25.181Z,9.10
2023-12-15T23:53:51.765Z,7.40
2023-12-15T23:56:18.436Z,10.60
2023-12-15T23:58:45.027Z,11.23
